sensor_id;sensor_type;location;lat;lon;timestamp;temperature;humidity
23120;DHT22;11729;50.836;4.330;2023-03-04T00:01:05;7.50;99.90
23120;DHT22;11729;50.836;4.330;2023-03-04T00:03:30;7.80;99.90
23120;DHT22;11729;50.836;4.330;2023-03-04T00:05:56;7.90;99.90
23120;DHT22;11729;50.836;4.330;2023-03-04T00:08:21;8.00;99.90
23120;DHT22;11729;50.836;4.330;2023-03-04T00:10:47;7.90;99.90
23120;DHT22;11729;50.836;4.330;2023-03-04T00:13:13;7.70;99.90
23120;DHT22;11729;50.836;4.330;2023-03-04T00:15:38;7.60;99.90
23120;DHT22;11729;50.836;4.330;2023-03-04T00:18:04;7.60;99.90
23120;DHT22;11729;50.836;4.330;2023-03-04T00:20:30;7.70;99.90
23120;DHT22;11729;50.836;4.330;2023-03-04T00:22:55;7.70;99.90
23120;DHT22;11729;50.836;4.330;2023-03-04T00:25:21;7.60;99.90
23120;DHT22;11729;50.836;4.330;2023-03-04T00:27:46;7.60;99.90
23120;DHT22;11729;50.836;4.330;2023-03-04T00:30:12;7.30;99.90
23120;DHT22;11729;50.836;4.330;2023-03-04T00:32:38;7.40;99.90
23120;DHT22;11729;50.836;4.330;2023-03-04T00:35:05;7.40;99.90
23120;DHT22;11729;50.836;4.330;2023-03-04T00:37:32;7.20;99.90
23120;DHT22;11729;50.836;4.330;2023-03-04T00:39:57;7.40;99.90
23120;DHT22;11729;50.836;4.330;2023-03-04T00:42:23;7.40;99.90
23120;DHT22;11729;50.836;4.330;2023-03-04T00:44:48;7.40;99.90
23120;DHT22;11729;50.836;4.330;2023-03-04T00:47:15;7.60;99.90
23120;DHT22;11729;50.836;4.330;2023-03-04T00:49:41;7.60;99.90
23120;DHT22;11729;50.836;4.330;2023-03-04T00:52:06;7.70;99.90
23120;DHT22;11729;50.836;4.330;2023-03-04T00:54:32;7.50;99.90
23120;DHT22;11729;50.836;4.330;2023-03-04T00:56:58;7.40;99.90
23120;DHT22;11729;50.836;4.330;2023-03-04T00:59:23;7.40;99.90
23120;DHT22;11729;50.836;4.330;2023-03-04T01:01:49;7.40;99.90
23120;DHT22;11729;50.836;4.330;2023-03-04T01:04:14;7.40;99.90
23120;DHT22;11729;50.836;4.330;2023-03-04T01:06:40;7.60;99.90
23120;DHT22;11729;50.836;4.330;2023-03-04T01:09:06;7.90;99.90
23120;DHT22;11729;50.836;4.330;2023-03-04T01:11:33;7.60;99.90
23120;DHT22;11729;50.836;4.330;2023-03-04T01:13:58;7.50;99.90
23120;DHT22;11729;50.836;4.330;2023-03-04T01:16:24;7.40;99.90
23120;DHT22;11729;50.836;4.330;2023-03-04T01:18:50;7.40;99.90
23120;DHT22;11729;50.836;4.330;2023-03-04T01:21:15;7.40;99.90
23120;DHT22;11729;50.836;4.330;2023-03-04T01:23:41;7.70;99.90
23120;DHT22;11729;50.836;4.330;2023-03-04T01:26:06;7.80;99.90
23120;DHT22;11729;50.836;4.330;2023-03-04T01:28:32;7.60;99.90
23120;DHT22;11729;50.836;4.330;2023-03-04T01:31:01;7.50;99.90
23120;DHT22;11729;50.836;4.330;2023-03-04T01:33:27;7.40;99.90
23120;DHT22;11729;50.836;4.330;2023-03-04T01:35:53;7.50;99.90
23120;DHT22;11729;50.836;4.330;2023-03-04T01:38:18;7.50;99.90
23120;DHT22;11729;50.836;4.330;2023-03-04T01:40:44;7.50;99.90
23120;DHT22;11729;50.836;4.330;2023-03-04T01:43:24;7.70;99.90
23120;DHT22;11729;50.836;4.330;2023-03-04T01:45:53;7.60;99.90
23120;DHT22;11729;50.836;4.330;2023-03-04T01:48:30;7.40;99.90
23120;DHT22;11729;50.836;4.330;2023-03-04T01:50:58;7.30;99.90
23120;DHT22;11729;50.836;4.330;2023-03-04T01:53:28;7.20;99.90
23120;DHT22;11729;50.836;4.330;2023-03-04T01:55:56;7.30;99.90
23120;DHT22;11729;50.836;4.330;2023-03-04T01:58:24;7.40;99.90
23120;DHT22;11729;50.836;4.330;2023-03-04T02:00:50;7.40;99.90
23120;DHT22;11729;50.836;4.330;2023-03-04T02:03:17;7.30;99.90
23120;DHT22;11729;50.836;4.330;2023-03-04T02:05:49;7.40;99.90
23120;DHT22;11729;50.836;4.330;2023-03-04T02:08:15;7.40;99.90
23120;DHT22;11729;50.836;4.330;2023-03-04T02:10:43;7.50;99.90
23120;DHT22;11729;50.836;4.330;2023-03-04T02:13:10;7.40;99.90
23120;DHT22;11729;50.836;4.330;2023-03-04T02:15:36;7.40;99.90
23120;DHT22;11729;50.836;4.330;2023-03-04T02:18:03;7.50;99.90
23120;DHT22;11729;50.836;4.330;2023-03-04T02:21:02;7.50;99.90
23120;DHT22;11729;50.836;4.330;2023-03-04T02:26:19;7.50;99.90
23120;DHT22;11729;50.836;4.330;2023-03-04T02:28:45;7.60;99.90
23120;DHT22;11729;50.836;4.330;2023-03-04T02:31:34;7.80;99.90
23120;DHT22;11729;50.836;4.330;2023-03-04T02:34:14;7.90;99.90
23120;DHT22;11729;50.836;4.330;2023-03-04T02:36:41;8.00;99.90
23120;DHT22;11729;50.836;4.330;2023-03-04T02:41:50;8.00;99.90
23120;DHT22;11729;50.836;4.330;2023-03-04T02:44:17;8.20;99.90
23120;DHT22;11729;50.836;4.330;2023-03-04T02:46:43;8.00;99.90
23120;DHT22;11729;50.836;4.330;2023-03-04T02:49:09;7.90;99.90
23120;DHT22;11729;50.836;4.330;2023-03-04T02:51:35;7.70;99.90
23120;DHT22;11729;50.836;4.330;2023-03-04T02:54:00;8.00;99.90
23120;DHT22;11729;50.836;4.330;2023-03-04T02:56:26;8.00;99.90
23120;DHT22;11729;50.836;4.330;2023-03-04T02:58:51;7.80;99.90
23120;DHT22;11729;50.836;4.330;2023-03-04T03:01:17;7.80;99.90
23120;DHT22;11729;50.836;4.330;2023-03-04T03:03:44;8.00;99.90
23120;DHT22;11729;50.836;4.330;2023-03-04T03:06:09;8.00;99.90
23120;DHT22;11729;50.836;4.330;2023-03-04T03:08:36;7.80;99.90
23120;DHT22;11729;50.836;4.330;2023-03-04T03:11:02;7.90;99.90
23120;DHT22;11729;50.836;4.330;2023-03-04T03:13:28;7.70;99.90
23120;DHT22;11729;50.836;4.330;2023-03-04T03:15:54;7.70;99.90
23120;DHT22;11729;50.836;4.330;2023-03-04T03:18:19;7.80;99.90
23120;DHT22;11729;50.836;4.330;2023-03-04T03:20:45;7.80;99.90
23120;DHT22;11729;50.836;4.330;2023-03-04T03:23:11;7.80;99.90
23120;DHT22;11729;50.836;4.330;2023-03-04T03:25:37;7.90;99.90
23120;DHT22;11729;50.836;4.330;2023-03-04T03:28:02;7.90;99.90
23120;DHT22;11729;50.836;4.330;2023-03-04T03:30:28;7.80;99.90
23120;DHT22;11729;50.836;4.330;2023-03-04T03:32:54;7.70;99.90
23120;DHT22;11729;50.836;4.330;2023-03-04T03:35:21;7.60;99.90
23120;DHT22;11729;50.836;4.330;2023-03-04T03:37:48;7.80;99.90
23120;DHT22;11729;50.836;4.330;2023-03-04T03:40:14;7.90;99.90
23120;DHT22;11729;50.836;4.330;2023-03-04T03:42:40;7.90;99.90
23120;DHT22;11729;50.836;4.330;2023-03-04T03:45:06;7.90;99.90
23120;DHT22;11729;50.836;4.330;2023-03-04T03:47:32;8.00;99.90
23120;DHT22;11729;50.836;4.330;2023-03-04T03:49:57;8.00;99.90
23120;DHT22;11729;50.836;4.330;2023-03-04T03:52:23;7.80;99.90
23120;DHT22;11729;50.836;4.330;2023-03-04T03:54:49;7.80;99.90
23120;DHT22;11729;50.836;4.330;2023-03-04T03:57:14;7.60;99.90
23120;DHT22;11729;50.836;4.330;2023-03-04T03:59:40;7.60;99.90
23120;DHT22;11729;50.836;4.330;2023-03-04T04:02:05;7.40;99.90
23120;DHT22;11729;50.836;4.330;2023-03-04T04:04:31;7.50;99.90
23120;DHT22;11729;50.836;4.330;2023-03-04T04:06:57;7.50;99.90
23120;DHT22;11729;50.836;4.330;2023-03-04T04:09:22;7.60;99.90
23120;DHT22;11729;50.836;4.330;2023-03-04T04:11:48;7.80;99.90
23120;DHT22;11729;50.836;4.330;2023-03-04T04:14:14;7.90;99.90
23120;DHT22;11729;50.836;4.330;2023-03-04T04:16:40;7.90;99.90
23120;DHT22;11729;50.836;4.330;2023-03-04T04:19:06;8.00;99.90
23120;DHT22;11729;50.836;4.330;2023-03-04T04:21:31;8.10;99.90
23120;DHT22;11729;50.836;4.330;2023-03-04T04:23:57;8.00;99.90
23120;DHT22;11729;50.836;4.330;2023-03-04T04:26:22;7.90;99.90
23120;DHT22;11729;50.836;4.330;2023-03-04T04:28:48;7.70;99.90
23120;DHT22;11729;50.836;4.330;2023-03-04T04:31:14;7.70;99.90
23120;DHT22;11729;50.836;4.330;2023-03-04T04:33:39;7.80;99.90
23120;DHT22;11729;50.836;4.330;2023-03-04T04:36:05;7.80;99.90
23120;DHT22;11729;50.836;4.330;2023-03-04T04:38:31;7.80;99.90
23120;DHT22;11729;50.836;4.330;2023-03-04T04:40:57;7.70;99.90
23120;DHT22;11729;50.836;4.330;2023-03-04T04:43:24;7.80;99.90
23120;DHT22;11729;50.836;4.330;2023-03-04T04:45:50;7.80;99.90
23120;DHT22;11729;50.836;4.330;2023-03-04T04:48:16;7.90;99.90
23120;DHT22;11729;50.836;4.330;2023-03-04T04:50:41;7.90;99.90
23120;DHT22;11729;50.836;4.330;2023-03-04T04:53:08;8.00;99.90
23120;DHT22;11729;50.836;4.330;2023-03-04T04:55:34;7.80;99.90
23120;DHT22;11729;50.836;4.330;2023-03-04T04:58:00;7.70;99.90
23120;DHT22;11729;50.836;4.330;2023-03-04T05:00:25;7.70;99.90
23120;DHT22;11729;50.836;4.330;2023-03-04T05:02:51;7.70;99.90
23120;DHT22;11729;50.836;4.330;2023-03-04T05:05:17;7.80;99.90
23120;DHT22;11729;50.836;4.330;2023-03-04T05:07:42;7.70;99.90
23120;DHT22;11729;50.836;4.330;2023-03-04T05:10:09;7.70;99.90
23120;DHT22;11729;50.836;4.330;2023-03-04T05:12:34;7.60;99.90
23120;DHT22;11729;50.836;4.330;2023-03-04T05:15:00;7.60;99.90
23120;DHT22;11729;50.836;4.330;2023-03-04T05:17:26;7.70;99.90
23120;DHT22;11729;50.836;4.330;2023-03-04T05:19:51;7.80;99.90
23120;DHT22;11729;50.836;4.330;2023-03-04T05:22:17;8.00;99.90
23120;DHT22;11729;50.836;4.330;2023-03-04T05:24:43;7.90;99.90
23120;DHT22;11729;50.836;4.330;2023-03-04T05:27:08;8.10;99.90
23120;DHT22;11729;50.836;4.330;2023-03-04T05:29:34;8.00;99.90
23120;DHT22;11729;50.836;4.330;2023-03-04T05:31:59;8.00;99.90
23120;DHT22;11729;50.836;4.330;2023-03-04T05:34:25;7.80;99.90
23120;DHT22;11729;50.836;4.330;2023-03-04T05:36:51;7.70;99.90
23120;DHT22;11729;50.836;4.330;2023-03-04T05:39:16;7.50;99.90
23120;DHT22;11729;50.836;4.330;2023-03-04T05:41:42;7.50;99.90
23120;DHT22;11729;50.836;4.330;2023-03-04T05:44:08;7.60;99.90
23120;DHT22;11729;50.836;4.330;2023-03-04T05:46:33;7.80;99.90
23120;DHT22;11729;50.836;4.330;2023-03-04T05:48:59;7.70;99.90
23120;DHT22;11729;50.836;4.330;2023-03-04T05:51:25;8.00;99.90
23120;DHT22;11729;50.836;4.330;2023-03-04T05:53:51;8.00;99.90
23120;DHT22;11729;50.836;4.330;2023-03-04T05:56:18;8.00;99.90
23120;DHT22;11729;50.836;4.330;2023-03-04T05:58:44;8.10;99.90
23120;DHT22;11729;50.836;4.330;2023-03-04T06:01:12;8.00;99.90
23120;DHT22;11729;50.836;4.330;2023-03-04T06:03:38;7.70;99.90
23120;DHT22;11729;50.836;4.330;2023-03-04T06:06:04;7.60;99.90
23120;DHT22;11729;50.836;4.330;2023-03-04T06:08:30;7.70;99.90
23120;DHT22;11729;50.836;4.330;2023-03-04T06:10:56;7.60;99.90
23120;DHT22;11729;50.836;4.330;2023-03-04T06:13:22;7.90;99.90
23120;DHT22;11729;50.836;4.330;2023-03-04T06:15:54;8.00;99.90
23120;DHT22;11729;50.836;4.330;2023-03-04T06:18:19;7.90;99.90
23120;DHT22;11729;50.836;4.330;2023-03-04T06:20:45;7.80;99.90
23120;DHT22;11729;50.836;4.330;2023-03-04T06:23:10;7.70;99.90
23120;DHT22;11729;50.836;4.330;2023-03-04T06:25:36;7.60;99.90
23120;DHT22;11729;50.836;4.330;2023-03-04T06:28:02;7.70;99.90
23120;DHT22;11729;50.836;4.330;2023-03-04T06:30:27;7.70;99.90
23120;DHT22;11729;50.836;4.330;2023-03-04T06:32:53;7.50;99.90
23120;DHT22;11729;50.836;4.330;2023-03-04T06:35:19;7.70;99.90
23120;DHT22;11729;50.836;4.330;2023-03-04T06:37:44;7.80;99.90
23120;DHT22;11729;50.836;4.330;2023-03-04T06:40:11;7.80;99.90
23120;DHT22;11729;50.836;4.330;2023-03-04T06:42:37;7.70;99.90
23120;DHT22;11729;50.836;4.330;2023-03-04T06:45:06;7.70;99.90
23120;DHT22;11729;50.836;4.330;2023-03-04T06:47:32;7.70;99.90
23120;DHT22;11729;50.836;4.330;2023-03-04T06:49:58;7.70;99.90
23120;DHT22;11729;50.836;4.330;2023-03-04T06:52:25;7.60;99.90
23120;DHT22;11729;50.836;4.330;2023-03-04T06:54:50;7.50;99.90
23120;DHT22;11729;50.836;4.330;2023-03-04T06:57:16;7.60;99.90
23120;DHT22;11729;50.836;4.330;2023-03-04T06:59:41;7.70;99.90
23120;DHT22;11729;50.836;4.330;2023-03-04T07:02:10;7.90;99.90
23120;DHT22;11729;50.836;4.330;2023-03-04T07:04:37;8.00;99.90
23120;DHT22;11729;50.836;4.330;2023-03-04T07:07:03;7.90;99.90
23120;DHT22;11729;50.836;4.330;2023-03-04T07:09:29;8.00;99.90
23120;DHT22;11729;50.836;4.330;2023-03-04T07:11:55;8.00;99.90
23120;DHT22;11729;50.836;4.330;2023-03-04T07:14:20;8.00;99.90
23120;DHT22;11729;50.836;4.330;2023-03-04T07:16:46;7.90;99.90
23120;DHT22;11729;50.836;4.330;2023-03-04T07:19:12;7.90;99.90
23120;DHT22;11729;50.836;4.330;2023-03-04T07:21:37;8.00;99.90
23120;DHT22;11729;50.836;4.330;2023-03-04T07:24:03;8.00;99.90
23120;DHT22;11729;50.836;4.330;2023-03-04T07:26:29;7.90;99.90
23120;DHT22;11729;50.836;4.330;2023-03-04T07:28:55;7.80;99.90
23120;DHT22;11729;50.836;4.330;2023-03-04T07:31:28;7.70;99.90
23120;DHT22;11729;50.836;4.330;2023-03-04T07:34:00;7.80;99.90
23120;DHT22;11729;50.836;4.330;2023-03-04T07:36:26;7.70;99.90
23120;DHT22;11729;50.836;4.330;2023-03-04T07:38:52;7.90;99.90
23120;DHT22;11729;50.836;4.330;2023-03-04T07:41:20;8.10;99.90
23120;DHT22;11729;50.836;4.330;2023-03-04T07:43:46;8.40;99.90
23120;DHT22;11729;50.836;4.330;2023-03-04T07:46:12;8.10;99.90
23120;DHT22;11729;50.836;4.330;2023-03-04T07:48:38;7.90;99.90
23120;DHT22;11729;50.836;4.330;2023-03-04T07:53:33;8.00;99.90
23120;DHT22;11729;50.836;4.330;2023-03-04T07:55:59;8.20;99.90
23120;DHT22;11729;50.836;4.330;2023-03-04T07:58:25;8.20;99.90
23120;DHT22;11729;50.836;4.330;2023-03-04T08:00:50;8.10;99.90
23120;DHT22;11729;50.836;4.330;2023-03-04T08:03:16;8.20;99.90
23120;DHT22;11729;50.836;4.330;2023-03-04T08:05:41;8.30;99.90
23120;DHT22;11729;50.836;4.330;2023-03-04T08:08:07;8.00;99.90
23120;DHT22;11729;50.836;4.330;2023-03-04T08:10:33;8.00;99.90
23120;DHT22;11729;50.836;4.330;2023-03-04T08:13:00;7.90;99.90
23120;DHT22;11729;50.836;4.330;2023-03-04T08:15:26;8.20;99.90
23120;DHT22;11729;50.836;4.330;2023-03-04T08:17:52;8.30;99.90
23120;DHT22;11729;50.836;4.330;2023-03-04T08:20:18;8.30;99.90
23120;DHT22;11729;50.836;4.330;2023-03-04T08:22:44;8.10;99.90
23120;DHT22;11729;50.836;4.330;2023-03-04T08:25:10;8.20;99.90
23120;DHT22;11729;50.836;4.330;2023-03-04T08:27:36;8.40;99.90
23120;DHT22;11729;50.836;4.330;2023-03-04T08:30:04;8.60;99.90
23120;DHT22;11729;50.836;4.330;2023-03-04T08:32:29;8.50;99.90
23120;DHT22;11729;50.836;4.330;2023-03-04T08:34:56;8.20;99.90
23120;DHT22;11729;50.836;4.330;2023-03-04T08:37:22;8.30;99.90
23120;DHT22;11729;50.836;4.330;2023-03-04T08:39:48;8.20;99.90
23120;DHT22;11729;50.836;4.330;2023-03-04T08:42:13;8.10;99.90
23120;DHT22;11729;50.836;4.330;2023-03-04T08:44:40;8.10;99.90
23120;DHT22;11729;50.836;4.330;2023-03-04T08:47:05;8.10;99.90
23120;DHT22;11729;50.836;4.330;2023-03-04T08:49:40;8.10;99.90
23120;DHT22;11729;50.836;4.330;2023-03-04T08:52:07;8.10;99.90
23120;DHT22;11729;50.836;4.330;2023-03-04T08:54:33;8.10;99.90
23120;DHT22;11729;50.836;4.330;2023-03-04T08:56:58;8.10;99.90
23120;DHT22;11729;50.836;4.330;2023-03-04T08:59:24;8.20;99.90
23120;DHT22;11729;50.836;4.330;2023-03-04T09:01:50;8.40;99.90
23120;DHT22;11729;50.836;4.330;2023-03-04T09:04:16;8.60;99.90
23120;DHT22;11729;50.836;4.330;2023-03-04T09:06:41;8.60;99.90
23120;DHT22;11729;50.836;4.330;2023-03-04T09:09:07;8.80;99.90
23120;DHT22;11729;50.836;4.330;2023-03-04T09:11:33;8.80;99.90
23120;DHT22;11729;50.836;4.330;2023-03-04T09:13:59;8.90;99.90
23120;DHT22;11729;50.836;4.330;2023-03-04T09:16:24;8.70;99.90
23120;DHT22;11729;50.836;4.330;2023-03-04T09:18:50;8.60;99.90
23120;DHT22;11729;50.836;4.330;2023-03-04T09:21:16;8.40;99.90
23120;DHT22;11729;50.836;4.330;2023-03-04T09:23:41;8.50;99.90
23120;DHT22;11729;50.836;4.330;2023-03-04T09:26:21;8.30;99.90
23120;DHT22;11729;50.836;4.330;2023-03-04T09:28:55;8.10;99.90
23120;DHT22;11729;50.836;4.330;2023-03-04T09:31:22;8.20;99.90
23120;DHT22;11729;50.836;4.330;2023-03-04T09:33:47;8.10;99.90
23120;DHT22;11729;50.836;4.330;2023-03-04T09:36:14;8.20;99.90
23120;DHT22;11729;50.836;4.330;2023-03-04T09:38:40;8.20;99.90
23120;DHT22;11729;50.836;4.330;2023-03-04T09:41:18;8.30;99.90
23120;DHT22;11729;50.836;4.330;2023-03-04T09:43:46;8.40;99.90
23120;DHT22;11729;50.836;4.330;2023-03-04T09:46:21;8.50;99.90
23120;DHT22;11729;50.836;4.330;2023-03-04T09:48:51;8.50;99.90
23120;DHT22;11729;50.836;4.330;2023-03-04T09:54:10;8.40;99.90
23120;DHT22;11729;50.836;4.330;2023-03-04T09:56:40;8.50;99.90
23120;DHT22;11729;50.836;4.330;2023-03-04T09:59:23;8.40;99.90
23120;DHT22;11729;50.836;4.330;2023-03-04T10:01:54;8.40;99.90
23120;DHT22;11729;50.836;4.330;2023-03-04T10:04:33;8.10;99.90
23120;DHT22;11729;50.836;4.330;2023-03-04T10:07:02;8.20;99.90
23120;DHT22;11729;50.836;4.330;2023-03-04T10:09:29;8.40;99.90
23120;DHT22;11729;50.836;4.330;2023-03-04T10:12:03;8.20;99.90
23120;DHT22;11729;50.836;4.330;2023-03-04T10:14:39;8.20;99.90
23120;DHT22;11729;50.836;4.330;2023-03-04T10:17:18;8.50;99.90
23120;DHT22;11729;50.836;4.330;2023-03-04T10:20:06;8.40;99.90
23120;DHT22;11729;50.836;4.330;2023-03-04T10:25:31;8.80;99.90
23120;DHT22;11729;50.836;4.330;2023-03-04T10:28:00;8.70;99.90
23120;DHT22;11729;50.836;4.330;2023-03-04T10:31:11;8.70;99.90
23120;DHT22;11729;50.836;4.330;2023-03-04T10:33:38;8.70;99.90
23120;DHT22;11729;50.836;4.330;2023-03-04T10:38:45;9.10;99.90
23120;DHT22;11729;50.836;4.330;2023-03-04T10:41:20;9.00;99.90
23120;DHT22;11729;50.836;4.330;2023-03-04T10:46:25;9.10;99.90
23120;DHT22;11729;50.836;4.330;2023-03-04T10:48:52;9.30;99.90
23120;DHT22;11729;50.836;4.330;2023-03-04T10:51:28;9.50;99.90
23120;DHT22;11729;50.836;4.330;2023-03-04T10:54:08;9.60;99.90
23120;DHT22;11729;50.836;4.330;2023-03-04T10:56:42;9.60;99.90
23120;DHT22;11729;50.836;4.330;2023-03-04T11:02:16;9.90;99.90
23120;DHT22;11729;50.836;4.330;2023-03-04T11:04:52;9.90;99.90
23120;DHT22;11729;50.836;4.330;2023-03-04T11:07:20;9.80;99.90
23120;DHT22;11729;50.836;4.330;2023-03-04T11:09:46;9.60;99.90
23120;DHT22;11729;50.836;4.330;2023-03-04T11:12:14;9.50;99.90
23120;DHT22;11729;50.836;4.330;2023-03-04T11:14:41;9.80;99.90
23120;DHT22;11729;50.836;4.330;2023-03-04T11:17:28;10.10;99.90
23120;DHT22;11729;50.836;4.330;2023-03-04T11:20:17;9.90;99.90
23120;DHT22;11729;50.836;4.330;2023-03-04T11:22:47;9.80;99.90
23120;DHT22;11729;50.836;4.330;2023-03-04T11:27:57;10.10;99.90
23120;DHT22;11729;50.836;4.330;2023-03-04T11:33:12;10.00;99.90
23120;DHT22;11729;50.836;4.330;2023-03-04T11:36:01;10.10;99.90
23120;DHT22;11729;50.836;4.330;2023-03-04T11:38:36;10.10;99.90
23120;DHT22;11729;50.836;4.330;2023-03-04T11:41:10;10.10;99.90
23120;DHT22;11729;50.836;4.330;2023-03-04T11:43:38;9.80;99.90
23120;DHT22;11729;50.836;4.330;2023-03-04T11:54:34;10.00;99.90
23120;DHT22;11729;50.836;4.330;2023-03-04T12:05:42;9.90;99.90
23120;DHT22;11729;50.836;4.330;2023-03-04T12:13:57;10.30;99.90
23120;DHT22;11729;50.836;4.330;2023-03-04T12:25:20;10.50;99.90
23120;DHT22;11729;50.836;4.330;2023-03-04T12:35:51;10.20;99.90
23120;DHT22;11729;50.836;4.330;2023-03-04T12:41:39;9.90;99.90
23120;DHT22;11729;50.836;4.330;2023-03-04T12:44:17;10.50;99.90
23120;DHT22;11729;50.836;4.330;2023-03-04T12:46:45;10.60;99.90
23120;DHT22;11729;50.836;4.330;2023-03-04T12:52:42;11.10;99.90
23120;DHT22;11729;50.836;4.330;2023-03-04T12:55:11;10.90;99.90
23120;DHT22;11729;50.836;4.330;2023-03-04T12:57:38;11.00;99.90
23120;DHT22;11729;50.836;4.330;2023-03-04T13:00:31;11.00;99.90
23120;DHT22;11729;50.836;4.330;2023-03-04T13:06:26;11.00;99.90
23120;DHT22;11729;50.836;4.330;2023-03-04T13:11:38;10.40;99.90
23120;DHT22;11729;50.836;4.330;2023-03-04T13:16:46;10.80;99.90
23120;DHT22;11729;50.836;4.330;2023-03-04T13:43:45;10.50;99.90
23120;DHT22;11729;50.836;4.330;2023-03-04T13:53:48;10.10;99.90
23120;DHT22;11729;50.836;4.330;2023-03-04T13:58:43;10.20;99.90
23120;DHT22;11729;50.836;4.330;2023-03-04T14:01:25;10.50;99.90
23120;DHT22;11729;50.836;4.330;2023-03-04T14:03:53;10.60;99.90
23120;DHT22;11729;50.836;4.330;2023-03-04T14:06:41;10.70;99.90
23120;DHT22;11729;50.836;4.330;2023-03-04T14:09:25;10.50;99.90
23120;DHT22;11729;50.836;4.330;2023-03-04T14:11:57;10.50;99.90
23120;DHT22;11729;50.836;4.330;2023-03-04T14:14:26;10.30;99.90
23120;DHT22;11729;50.836;4.330;2023-03-04T14:16:59;10.30;99.90
23120;DHT22;11729;50.836;4.330;2023-03-04T14:19:37;10.20;99.90
23120;DHT22;11729;50.836;4.330;2023-03-04T14:22:31;10.40;99.90
23120;DHT22;11729;50.836;4.330;2023-03-04T14:27:38;10.70;99.90
23120;DHT22;11729;50.836;4.330;2023-03-04T14:30:17;10.40;99.90
23120;DHT22;11729;50.836;4.330;2023-03-04T14:32:44;10.50;99.90
23120;DHT22;11729;50.836;4.330;2023-03-04T14:35:24;10.50;99.90
23120;DHT22;11729;50.836;4.330;2023-03-04T14:38:03;10.30;99.90
23120;DHT22;11729;50.836;4.330;2023-03-04T14:40:44;10.30;99.90
23120;DHT22;11729;50.836;4.330;2023-03-04T14:43:20;10.30;99.90
23120;DHT22;11729;50.836;4.330;2023-03-04T14:45:51;10.30;99.90
23120;DHT22;11729;50.836;4.330;2023-03-04T14:48:29;10.00;99.90
23120;DHT22;11729;50.836;4.330;2023-03-04T14:50:56;10.10;99.90
23120;DHT22;11729;50.836;4.330;2023-03-04T14:53:25;10.00;99.90
23120;DHT22;11729;50.836;4.330;2023-03-04T14:56:07;10.00;99.90
23120;DHT22;11729;50.836;4.330;2023-03-04T14:58:39;10.10;99.90
23120;DHT22;11729;50.836;4.330;2023-03-04T15:01:22;10.10;99.90
23120;DHT22;11729;50.836;4.330;2023-03-04T15:06:31;10.10;99.90
23120;DHT22;11729;50.836;4.330;2023-03-04T15:09:03;10.20;99.90
23120;DHT22;11729;50.836;4.330;2023-03-04T15:11:45;10.30;99.90
23120;DHT22;11729;50.836;4.330;2023-03-04T15:22:31;10.30;99.90
23120;DHT22;11729;50.836;4.330;2023-03-04T15:24:57;10.50;99.90
23120;DHT22;11729;50.836;4.330;2023-03-04T15:27:24;10.30;99.90
23120;DHT22;11729;50.836;4.330;2023-03-04T15:29:54;10.30;99.90
23120;DHT22;11729;50.836;4.330;2023-03-04T15:32:26;10.30;99.90
23120;DHT22;11729;50.836;4.330;2023-03-04T15:34:52;10.10;99.90
23120;DHT22;11729;50.836;4.330;2023-03-04T15:37:22;9.90;99.90
23120;DHT22;11729;50.836;4.330;2023-03-04T15:39:49;10.00;99.90
23120;DHT22;11729;50.836;4.330;2023-03-04T15:42:16;10.00;99.90
23120;DHT22;11729;50.836;4.330;2023-03-04T15:44:42;10.10;99.90
23120;DHT22;11729;50.836;4.330;2023-03-04T15:47:09;10.20;99.90
23120;DHT22;11729;50.836;4.330;2023-03-04T15:49:38;10.30;99.90
23120;DHT22;11729;50.836;4.330;2023-03-04T15:52:05;10.50;99.90
23120;DHT22;11729;50.836;4.330;2023-03-04T15:54:31;10.40;99.90
23120;DHT22;11729;50.836;4.330;2023-03-04T15:56:58;10.30;99.90
23120;DHT22;11729;50.836;4.330;2023-03-04T15:59:24;10.40;99.90
23120;DHT22;11729;50.836;4.330;2023-03-04T16:01:50;10.30;99.90
23120;DHT22;11729;50.836;4.330;2023-03-04T16:04:17;10.30;99.90
23120;DHT22;11729;50.836;4.330;2023-03-04T16:06:44;10.20;99.90
23120;DHT22;11729;50.836;4.330;2023-03-04T16:09:12;10.40;99.90
23120;DHT22;11729;50.836;4.330;2023-03-04T16:11:42;10.70;99.90
23120;DHT22;11729;50.836;4.330;2023-03-04T16:14:13;10.40;99.90
23120;DHT22;11729;50.836;4.330;2023-03-04T16:16:40;10.50;99.90
23120;DHT22;11729;50.836;4.330;2023-03-04T16:19:06;10.50;99.90
23120;DHT22;11729;50.836;4.330;2023-03-04T16:21:32;10.60;99.90
23120;DHT22;11729;50.836;4.330;2023-03-04T16:23:58;10.60;99.90
23120;DHT22;11729;50.836;4.330;2023-03-04T16:26:25;10.50;99.90
23120;DHT22;11729;50.836;4.330;2023-03-04T16:28:52;10.50;99.90
23120;DHT22;11729;50.836;4.330;2023-03-04T16:31:18;10.60;99.90
23120;DHT22;11729;50.836;4.330;2023-03-04T16:33:44;10.50;99.90
23120;DHT22;11729;50.836;4.330;2023-03-04T16:38:41;10.30;99.90
23120;DHT22;11729;50.836;4.330;2023-03-04T16:41:11;10.30;99.90
23120;DHT22;11729;50.836;4.330;2023-03-04T16:43:38;10.30;99.90
23120;DHT22;11729;50.836;4.330;2023-03-04T16:46:04;10.20;99.90
23120;DHT22;11729;50.836;4.330;2023-03-04T16:48:31;10.20;99.90
23120;DHT22;11729;50.836;4.330;2023-03-04T16:50:58;10.20;99.90
23120;DHT22;11729;50.836;4.330;2023-03-04T16:53:36;10.10;99.90
23120;DHT22;11729;50.836;4.330;2023-03-04T16:56:19;10.00;99.90
23120;DHT22;11729;50.836;4.330;2023-03-04T16:58:47;10.00;99.90
23120;DHT22;11729;50.836;4.330;2023-03-04T17:01:21;10.00;99.90
23120;DHT22;11729;50.836;4.330;2023-03-04T17:03:47;10.10;99.90
23120;DHT22;11729;50.836;4.330;2023-03-04T17:06:13;10.10;99.90
23120;DHT22;11729;50.836;4.330;2023-03-04T17:08:39;10.20;99.90
23120;DHT22;11729;50.836;4.330;2023-03-04T17:11:05;10.20;99.90
23120;DHT22;11729;50.836;4.330;2023-03-04T17:13:31;10.10;99.90
23120;DHT22;11729;50.836;4.330;2023-03-04T17:16:00;10.10;99.90
23120;DHT22;11729;50.836;4.330;2023-03-04T17:18:26;10.10;99.90
23120;DHT22;11729;50.836;4.330;2023-03-04T17:21:01;10.10;99.90
23120;DHT22;11729;50.836;4.330;2023-03-04T17:23:26;10.00;99.90
23120;DHT22;11729;50.836;4.330;2023-03-04T17:25:55;10.10;99.90
23120;DHT22;11729;50.836;4.330;2023-03-04T17:28:21;9.90;99.90
23120;DHT22;11729;50.836;4.330;2023-03-04T17:30:47;9.70;99.90
23120;DHT22;11729;50.836;4.330;2023-03-04T17:33:12;9.60;99.90
23120;DHT22;11729;50.836;4.330;2023-03-04T17:35:38;9.70;99.90
23120;DHT22;11729;50.836;4.330;2023-03-04T17:38:04;9.50;99.90
23120;DHT22;11729;50.836;4.330;2023-03-04T17:40:31;9.70;99.90
23120;DHT22;11729;50.836;4.330;2023-03-04T17:42:58;9.80;99.90
23120;DHT22;11729;50.836;4.330;2023-03-04T17:45:23;9.60;99.90
23120;DHT22;11729;50.836;4.330;2023-03-04T17:47:49;9.40;99.90
23120;DHT22;11729;50.836;4.330;2023-03-04T17:50:15;9.50;99.90
23120;DHT22;11729;50.836;4.330;2023-03-04T17:52:41;9.60;99.90
23120;DHT22;11729;50.836;4.330;2023-03-04T17:55:06;9.70;99.90
23120;DHT22;11729;50.836;4.330;2023-03-04T17:57:36;9.60;99.90
23120;DHT22;11729;50.836;4.330;2023-03-04T18:00:03;9.50;99.90
23120;DHT22;11729;50.836;4.330;2023-03-04T18:02:29;9.50;99.90